createdAt,value
2017-06-29T00:00:51.176Z,60.9
2017-06-29T00:01:53.549Z,60.8
2017-06-29T00:02:56.242Z,60.9
2017-06-29T00:03:58.257Z,60.9
2017-06-29T00:05:00.283Z,61
2017-06-29T00:06:02.319Z,60.9
2017-06-29T00:07:04.334Z,61
2017-06-29T00:08:06.356Z,60.9
2017-06-29T00:09:08.367Z,60.9
2017-06-29T00:10:10.387Z,60.9
2017-06-29T00:11:12.772Z,60.9
2017-06-29T00:12:14.786Z,60.9
2017-06-29T00:13:16.806Z,61
2017-06-29T00:14:19.171Z,60.9
2017-06-29T00:15:21.198Z,61
2017-06-29T00:16:23.563Z,61
2017-06-29T00:17:25.582Z,61
2017-06-29T00:18:27.601Z,61.1
2017-06-29T00:19:29.616Z,61.1
2017-06-29T00:20:31.629Z,61.1
2017-06-29T00:21:33.651Z,61.1
2017-06-29T00:22:35.665Z,61.2
2017-06-29T00:23:37.680Z,61.2
2017-06-29T00:24:40.040Z,61.2
2017-06-29T00:25:42.054Z,61.3
2017-06-29T00:26:44.068Z,61.3
2017-06-29T00:27:46.094Z,61.3
2017-06-29T00:28:48.114Z,61.4
2017-06-29T00:29:50.134Z,61.4
2017-06-29T00:30:52.147Z,61.5
2017-06-29T00:31:54.165Z,61.4
2017-06-29T00:32:56.522Z,61.5
2017-06-29T00:33:58.877Z,61.5
2017-06-29T00:35:00.894Z,61.5
2017-06-29T00:36:02.914Z,61.5
2017-06-29T00:37:04.933Z,61.4
2017-06-29T00:38:06.950Z,61.6
2017-06-29T00:39:08.964Z,61.6
2017-06-29T00:40:10.991Z,61.6
2017-06-29T00:41:43.086Z,61.6
2017-06-29T00:42:45.783Z,61.5
2017-06-29T00:43:48.145Z,61.6
2017-06-29T00:44:50.512Z,61.7
2017-06-29T00:45:52.529Z,61.6
2017-06-29T00:46:54.545Z,61.6
2017-06-29T00:47:56.567Z,61.6
2017-06-29T00:48:58.587Z,61.7
2017-06-29T00:50:00.601Z,61.7
2017-06-29T00:51:02.624Z,61.7
2017-06-29T00:52:04.644Z,61.7
2017-06-29T00:53:06.667Z,61.9
2017-06-29T00:54:08.686Z,61.8
2017-06-29T00:55:10.700Z,61.8
2017-06-29T00:56:12.711Z,61.8
2017-06-29T00:57:14.734Z,61.8
2017-06-29T00:58:16.757Z,61.8
2017-06-29T00:59:18.774Z,61.8
2017-06-29T01:00:21.129Z,61.8
2017-06-29T01:01:23.146Z,61.8
2017-06-29T01:02:25.162Z,61.7
2017-06-29T01:03:27.181Z,61.7
2017-06-29T01:04:29.204Z,61.7
2017-06-29T01:05:31.223Z,61.8
2017-06-29T01:06:33.244Z,61.9
2017-06-29T01:07:35.602Z,61.9
2017-06-29T01:08:37.621Z,61.9
2017-06-29T01:09:39.644Z,61.9
2017-06-29T01:10:41.657Z,61.8
2017-06-29T01:11:43.682Z,61.9
2017-06-29T01:12:45.705Z,61.8
2017-06-29T01:13:48.066Z,61.8
2017-06-29T01:14:50.755Z,61.7
2017-06-29T01:15:52.780Z,61.8
2017-06-29T01:16:54.800Z,61.8
2017-06-29T01:17:56.818Z,61.9
2017-06-29T01:18:58.827Z,61.9
2017-06-29T01:20:00.846Z,61.9
2017-06-29T01:21:02.857Z,61.9
2017-06-29T01:22:05.217Z,61.8
2017-06-29T01:23:07.234Z,61.8
2017-06-29T01:24:09.257Z,61.8
2017-06-29T01:25:11.275Z,61.9
2017-06-29T01:26:13.298Z,62
2017-06-29T01:27:15.319Z,62
2017-06-29T01:28:18.357Z,62
2017-06-29T01:29:21.053Z,62
2017-06-29T01:30:23.073Z,61.9
2017-06-29T01:31:25.128Z,62
2017-06-29T01:32:27.149Z,62.1
2017-06-29T01:33:29.507Z,62
2017-06-29T01:34:31.527Z,62
2017-06-29T01:35:34.230Z,62.1
2017-06-29T01:36:36.244Z,62.1
2017-06-29T01:37:38.263Z,62.2
2017-06-29T01:38:40.280Z,62.1
2017-06-29T01:39:42.295Z,62.1
2017-06-29T01:40:44.318Z,62.3
2017-06-29T01:41:46.338Z,62.2
2017-06-29T01:42:48.346Z,62.3
2017-06-29T01:43:50.367Z,62.4
2017-06-29T01:44:52.385Z,62.4
2017-06-29T01:45:54.401Z,62.4
2017-06-29T01:46:56.752Z,62.3
2017-06-29T01:47:58.770Z,62.3
2017-06-29T01:49:00.795Z,62.3
2017-06-29T01:50:02.816Z,62.3
2017-06-29T01:51:04.828Z,62.3
2017-06-29T01:52:06.850Z,62.4
2017-06-29T01:53:08.869Z,62.5
2017-06-29T01:54:10.887Z,62.5
2017-06-29T01:55:13.253Z,62.4
2017-06-29T01:56:15.277Z,62.5
2017-06-29T01:57:17.625Z,62.5
2017-06-29T01:58:19.642Z,62.5
2017-06-29T01:59:21.657Z,62.5
2017-06-29T02:00:23.677Z,62.5
2017-06-29T02:01:26.024Z,62.6
2017-06-29T02:02:28.039Z,62.8
2017-06-29T02:03:30.051Z,62.9
2017-06-29T02:04:32.759Z,62.9
2017-06-29T02:05:34.780Z,62.9
2017-06-29T02:06:36.803Z,62.9
2017-06-29T02:07:38.816Z,63
2017-06-29T02:08:40.838Z,62.9
2017-06-29T02:09:42.857Z,63
2017-06-29T02:10:45.207Z,62.9
2017-06-29T02:11:47.226Z,62.9
2017-06-29T02:12:49.243Z,62.9
2017-06-29T02:13:51.266Z,62.9
2017-06-29T02:14:53.279Z,62.9
2017-06-29T02:15:55.297Z,62.8
2017-06-29T02:16:57.312Z,62.9
2017-06-29T02:17:59.325Z,62.9
2017-06-29T02:19:01.685Z,63
2017-06-29T02:20:03.707Z,63
2017-06-29T02:21:05.729Z,62.9
2017-06-29T02:22:08.098Z,62.9
2017-06-29T02:23:10.105Z,62.8
2017-06-29T02:24:12.129Z,62.8
2017-06-29T02:25:14.141Z,62.8
2017-06-29T02:26:16.157Z,62.8
2017-06-29T02:27:18.179Z,62.8
2017-06-29T02:28:20.207Z,62.8
2017-06-29T02:29:22.219Z,62.9
2017-06-29T02:30:24.241Z,62.9
2017-06-29T02:31:26.601Z,62.9
2017-06-29T02:32:28.621Z,63
2017-06-29T02:33:30.637Z,63
2017-06-29T02:34:32.661Z,63
2017-06-29T02:35:35.035Z,63
2017-06-29T02:36:37.045Z,62.9
2017-06-29T02:37:39.070Z,63
2017-06-29T02:38:41.091Z,63.1
2017-06-29T02:39:43.106Z,63
2017-06-29T02:40:45.474Z,63
2017-06-29T02:41:47.495Z,63
2017-06-29T02:42:49.521Z,63
2017-06-29T02:43:51.540Z,63
2017-06-29T02:44:53.558Z,63.1
2017-06-29T02:45:55.579Z,63
2017-06-29T02:46:57.598Z,63.1
2017-06-29T02:47:59.959Z,63
2017-06-29T02:49:01.986Z,63
2017-06-29T02:50:04.001Z,63.1
2017-06-29T02:51:06.018Z,63
2017-06-29T02:52:08.043Z,63.1
2017-06-29T02:53:10.067Z,63
2017-06-29T02:54:12.099Z,63.1
2017-06-29T02:55:14.116Z,63.2
2017-06-29T02:56:16.138Z,63.2
2017-06-29T02:57:18.159Z,63.2
2017-06-29T02:58:20.176Z,63.2
2017-06-29T02:59:22.200Z,63.2
2017-06-29T03:00:24.226Z,63.1
2017-06-29T03:01:26.246Z,63.1
2017-06-29T03:02:28.267Z,63.2
2017-06-29T03:03:30.284Z,63
2017-06-29T03:04:32.302Z,63.1
2017-06-29T03:05:34.328Z,63.2
2017-06-29T03:06:36.684Z,63.2
2017-06-29T03:07:39.052Z,63.4
2017-06-29T03:08:41.071Z,63.5
2017-06-29T03:09:43.085Z,63.5
2017-06-29T03:10:45.444Z,63.5
2017-06-29T03:11:47.466Z,63.6
2017-06-29T03:12:49.485Z,63.7
2017-06-29T03:13:52.177Z,63.6
2017-06-29T03:14:54.198Z,63.5
2017-06-29T03:15:56.220Z,63.6
2017-06-29T03:16:58.584Z,63.6
2017-06-29T03:18:00.596Z,63.5
2017-06-29T03:19:02.629Z,63.6
2017-06-29T03:20:04.648Z,63.7
2017-06-29T03:21:06.675Z,63.7
2017-06-29T03:22:08.697Z,63.8
2017-06-29T03:23:10.717Z,63.9
2017-06-29T03:24:12.754Z,63.8
2017-06-29T03:25:15.108Z,63.8
2017-06-29T03:26:17.131Z,63.8
2017-06-29T03:27:19.154Z,63.8
2017-06-29T03:28:21.178Z,63.8
2017-06-29T03:29:23.207Z,63.8
2017-06-29T03:30:25.558Z,63.9
2017-06-29T03:31:27.574Z,63.9
2017-06-29T03:32:29.599Z,63.9
2017-06-29T03:33:31.616Z,64
2017-06-29T03:34:33.651Z,64
2017-06-29T03:35:35.668Z,64
2017-06-29T03:36:37.695Z,64
2017-06-29T03:37:39.711Z,64
2017-06-29T03:38:42.070Z,64
2017-06-29T03:39:44.086Z,64
2017-06-29T03:40:46.113Z,63.9
2017-06-29T03:41:48.125Z,63.8
2017-06-29T03:42:50.154Z,63.8
2017-06-29T03:43:52.173Z,63.7
2017-06-29T03:44:54.198Z,63.9
2017-06-29T03:45:56.561Z,63.8
2017-06-29T03:46:58.581Z,63.7
2017-06-29T03:48:00.942Z,63.7
2017-06-29T03:49:02.965Z,63.6
2017-06-29T03:50:05.319Z,63.7
2017-06-29T03:51:07.349Z,63.8
2017-06-29T03:52:09.373Z,63.9
2017-06-29T03:53:11.745Z,64
2017-06-29T03:54:13.771Z,63.9
2017-06-29T03:55:15.794Z,63.9
2017-06-29T03:56:17.818Z,64
2017-06-29T03:57:19.832Z,63.9
2017-06-29T03:58:21.860Z,64.1
2017-06-29T03:59:23.881Z,63.9
2017-06-29T04:00:25.896Z,63.9
2017-06-29T04:01:28.592Z,63.9
2017-06-29T04:02:30.612Z,63.8
2017-06-29T04:03:32.974Z,63.9
2017-06-29T04:04:35.335Z,63.9
2017-06-29T04:05:37.359Z,63.9
2017-06-29T04:06:39.718Z,63.8
2017-06-29T04:07:41.739Z,64
2017-06-29T04:08:43.760Z,63.9
2017-06-29T04:09:45.786Z,63.9
2017-06-29T04:10:47.850Z,63.9
2017-06-29T04:11:49.873Z,63.9
2017-06-29T04:12:51.900Z,63.9
2017-06-29T04:13:53.921Z,63.8
2017-06-29T04:14:55.953Z,63.9
2017-06-29T04:15:57.986Z,63.8
2017-06-29T04:17:00.012Z,63.9
2017-06-29T04:18:02.036Z,63.8
2017-06-29T04:19:04.058Z,63.8
2017-06-29T04:20:06.077Z,63.8
2017-06-29T04:21:08.098Z,63.8
2017-06-29T04:22:10.113Z,63.9
2017-06-29T04:23:12.136Z,64
2017-06-29T04:24:14.151Z,64
2017-06-29T04:25:16.171Z,64
2017-06-29T04:26:18.186Z,63.9
2017-06-29T04:27:20.551Z,63.9
2017-06-29T04:28:22.574Z,63.8
2017-06-29T04:29:24.935Z,63.8
2017-06-29T04:30:26.965Z,63.9
2017-06-29T04:31:29.334Z,63.7
2017-06-29T04:32:31.357Z,63.9
2017-06-29T04:33:33.390Z,63.8
2017-06-29T04:34:35.769Z,63.7
2017-06-29T04:35:37.848Z,63.8
2017-06-29T04:36:39.870Z,63.6
2017-06-29T04:37:41.896Z,63.8
2017-06-29T04:38:43.914Z,63.8
2017-06-29T04:39:46.281Z,63.8
2017-06-29T04:40:48.637Z,64
2017-06-29T04:41:50.998Z,63.9
2017-06-29T04:42:53.028Z,64
2017-06-29T04:43:55.383Z,64.1
2017-06-29T04:44:57.416Z,64.1
2017-06-29T04:45:59.769Z,64.1
2017-06-29T04:47:01.793Z,64.1
2017-06-29T04:48:03.821Z,64.2
2017-06-29T04:49:06.550Z,64.1
2017-06-29T04:50:08.580Z,64.1
2017-06-29T04:51:10.604Z,64.1
2017-06-29T04:52:12.628Z,64.1
2017-06-29T04:53:14.651Z,64.1
2017-06-29T04:54:16.664Z,64
2017-06-29T04:55:19.023Z,64
2017-06-29T04:56:21.046Z,64
2017-06-29T04:57:23.054Z,64.1
2017-06-29T04:58:25.077Z,64
2017-06-29T04:59:27.097Z,64.1
2017-06-29T05:00:29.117Z,64
2017-06-29T05:01:31.480Z,64
2017-06-29T05:02:33.500Z,64
2017-06-29T05:03:35.518Z,64.1
2017-06-29T05:04:37.539Z,64.1
2017-06-29T05:05:39.556Z,64.1
2017-06-29T05:06:41.579Z,64.1
2017-06-29T05:07:43.598Z,64.1
2017-06-29T05:08:45.618Z,64.2
2017-06-29T05:09:47.639Z,64.2
2017-06-29T05:10:49.666Z,64.3
2017-06-29T05:11:51.700Z,64.3
2017-06-29T05:12:53.718Z,64.2
2017-06-29T05:13:56.415Z,64.2
2017-06-29T05:14:58.793Z,64.3
2017-06-29T05:16:00.807Z,64.4
2017-06-29T05:17:02.826Z,64.4
2017-06-29T05:18:04.850Z,64.4
2017-06-29T05:19:06.869Z,64.4
2017-06-29T05:20:08.890Z,64.5
2017-06-29T05:21:10.910Z,64.4
2017-06-29T05:22:12.936Z,64.3
2017-06-29T05:23:14.954Z,64.4
2017-06-29T05:24:16.978Z,64.3
2017-06-29T05:25:19.024Z,64.2
2017-06-29T05:26:21.051Z,64.1
2017-06-29T05:27:23.071Z,64.2
2017-06-29T05:28:25.092Z,64.2
2017-06-29T05:29:27.111Z,64.1
2017-06-29T05:30:29.144Z,64.1
2017-06-29T05:31:31.201Z,64.1
2017-06-29T05:32:33.224Z,64.1
2017-06-29T05:33:35.241Z,64.1
2017-06-29T05:34:37.605Z,64.1
2017-06-29T05:35:39.630Z,64.3
2017-06-29T05:36:41.658Z,64.2
2017-06-29T05:37:43.677Z,64.2
2017-06-29T05:38:45.702Z,64.1
2017-06-29T05:39:47.719Z,64.1
2017-06-29T05:40:49.743Z,64.1
2017-06-29T05:41:51.764Z,64.2
2017-06-29T05:42:53.793Z,64.2
2017-06-29T05:43:56.158Z,64.3
2017-06-29T05:44:58.185Z,64.3
2017-06-29T05:46:00.198Z,64.2
2017-06-29T05:47:02.579Z,64.3
2017-06-29T05:48:04.600Z,64.4
2017-06-29T05:49:06.625Z,64.4
2017-06-29T05:50:08.647Z,64.4
2017-06-29T05:51:10.668Z,64.3
2017-06-29T05:52:12.689Z,64.2
2017-06-29T05:53:14.711Z,64.1
2017-06-29T05:54:17.068Z,64.1
2017-06-29T05:55:19.086Z,64.1
2017-06-29T05:56:21.110Z,64.1
2017-06-29T05:57:23.129Z,64.2
2017-06-29T05:58:25.158Z,64.2
2017-06-29T05:59:27.861Z,64.3
2017-06-29T06:00:29.878Z,64.4
2017-06-29T06:01:32.264Z,64.4
2017-06-29T06:02:34.626Z,64.5
2017-06-29T06:03:36.645Z,64.4
2017-06-29T06:04:38.672Z,64.3
2017-06-29T06:05:41.027Z,64.3
2017-06-29T06:06:43.048Z,64.2
2017-06-29T06:07:45.075Z,64.2
2017-06-29T06:08:47.110Z,64.2
2017-06-29T06:09:49.229Z,64.2
2017-06-29T06:10:52.131Z,64.4
2017-06-29T06:11:55.227Z,64.3
2017-06-29T06:12:58.902Z,64.2
2017-06-29T06:14:02.789Z,64.1
2017-06-29T06:15:05.765Z,64
2017-06-29T06:16:09.758Z,64.1
2017-06-29T06:17:14.898Z,64
2017-06-29T06:18:18.296Z,64
2017-06-29T06:19:22.031Z,63.8
2017-06-29T06:20:25.718Z,63.8
2017-06-29T06:21:30.091Z,63.9
2017-06-29T06:22:34.519Z,63.9
2017-06-29T06:23:40.538Z,63.9
2017-06-29T06:24:43.384Z,63.9
2017-06-29T06:25:47.068Z,63.9
2017-06-29T06:26:50.804Z,63.8
2017-06-29T06:27:53.923Z,63.8
2017-06-29T06:28:56.976Z,63.8
2017-06-29T06:30:01.048Z,63.9
2017-06-29T06:31:04.887Z,63.8
2017-06-29T06:32:08.084Z,63.7
2017-06-29T06:33:12.644Z,63.6
2017-06-29T06:34:16.003Z,63.7
2017-06-29T06:35:20.127Z,63.7
2017-06-29T06:36:24.601Z,63.5
2017-06-29T06:37:29.530Z,63.6
2017-06-29T06:38:33.532Z,63.4
2017-06-29T06:39:37.595Z,63.4
2017-06-29T06:40:42.097Z,63.4
2017-06-29T06:41:47.425Z,63.3
2017-06-29T06:42:50.944Z,63.3
2017-06-29T06:43:54.626Z,63.3
2017-06-29T06:44:58.331Z,63.2
2017-06-29T06:46:02.095Z,63.1
2017-06-29T06:47:04.163Z,63.1
2017-06-29T06:48:06.534Z,63
2017-06-29T06:49:08.554Z,63
2017-06-29T06:50:10.616Z,62.9
2017-06-29T06:51:12.648Z,63
2017-06-29T06:52:14.667Z,62.9
2017-06-29T06:53:16.696Z,62.9
2017-06-29T06:54:18.731Z,62.9
2017-06-29T06:55:21.087Z,62.8
2017-06-29T06:56:23.119Z,62.8
2017-06-29T06:57:25.145Z,62.8
2017-06-29T06:58:27.179Z,62.6
2017-06-29T06:59:29.203Z,62.7
2017-06-29T07:00:31.224Z,62.5
2017-06-29T07:01:33.272Z,62.5
2017-06-29T07:02:35.327Z,62.5
2017-06-29T07:03:37.688Z,62.5
2017-06-29T07:04:39.722Z,62.5
2017-06-29T07:05:41.749Z,62.4
2017-06-29T07:06:43.824Z,62.3
2017-06-29T07:07:46.386Z,62.3
2017-06-29T07:08:48.423Z,62.2
2017-06-29T07:09:50.456Z,62.1
2017-06-29T07:10:52.493Z,62.2
2017-06-29T07:11:55.283Z,62.2
2017-06-29T07:12:57.844Z,62.2
2017-06-29T07:13:59.868Z,62.2
2017-06-29T07:15:01.909Z,62
2017-06-29T07:16:04.266Z,61.9
2017-06-29T07:17:06.637Z,61.9
2017-06-29T07:18:08.658Z,61.8
2017-06-29T07:19:10.683Z,61.8
2017-06-29T07:20:12.707Z,61.7
2017-06-29T07:21:15.081Z,61.7
2017-06-29T07:22:17.448Z,61.5
2017-06-29T07:23:19.473Z,61.5
2017-06-29T07:24:21.541Z,61.3
2017-06-29T07:25:23.562Z,61.3
2017-06-29T07:26:25.589Z,61.4
2017-06-29T07:27:27.618Z,61.4
2017-06-29T07:28:29.649Z,61.4
2017-06-29T07:29:31.674Z,61.4
2017-06-29T07:30:33.702Z,61.4
2017-06-29T07:31:35.722Z,61.3
2017-06-29T07:32:37.742Z,61.2
2017-06-29T07:33:39.775Z,61.3
2017-06-29T07:34:41.792Z,61.2
2017-06-29T07:35:43.820Z,61.1
2017-06-29T07:36:46.179Z,61.2
2017-06-29T07:37:48.564Z,61.1
2017-06-29T07:38:50.928Z,61
2017-06-29T07:39:53.289Z,60.9
2017-06-29T07:40:55.694Z,60.9
2017-06-29T07:41:57.729Z,60.8
2017-06-29T07:43:00.086Z,60.7
2017-06-29T07:44:02.115Z,60.8
2017-06-29T07:45:04.164Z,60.8
2017-06-29T07:46:06.531Z,60.7
2017-06-29T07:47:08.552Z,60.7
2017-06-29T07:48:10.577Z,60.6
2017-06-29T07:49:12.637Z,60.6
2017-06-29T07:50:14.670Z,60.5
2017-06-29T07:51:16.698Z,60.4
2017-06-29T07:52:18.726Z,60.4
2017-06-29T07:53:20.784Z,60.2
2017-06-29T07:54:22.808Z,60.2
2017-06-29T07:55:24.830Z,60.2
2017-06-29T07:56:26.860Z,60.1
2017-06-29T07:57:28.886Z,60.2
2017-06-29T07:58:30.962Z,60.2
2017-06-29T07:59:32.985Z,60.2
2017-06-29T08:00:35.007Z,60.2
2017-06-29T08:01:37.040Z,60.2
2017-06-29T08:02:39.405Z,60.1
2017-06-29T08:03:41.429Z,60.1
2017-06-29T08:04:43.456Z,60.2
2017-06-29T08:05:45.486Z,60.1
2017-06-29T08:06:47.517Z,60.2
2017-06-29T08:07:49.541Z,60.1
2017-06-29T08:08:51.911Z,60.1
2017-06-29T08:09:53.941Z,60.1
2017-06-29T08:10:55.964Z,60
2017-06-29T08:11:57.992Z,60
2017-06-29T08:13:00.016Z,60
2017-06-29T08:14:02.040Z,60
2017-06-29T08:15:04.083Z,60.1
2017-06-29T08:16:06.442Z,60.1
2017-06-29T08:17:08.468Z,60
2017-06-29T08:18:11.169Z,60
2017-06-29T08:19:13.193Z,60
2017-06-29T08:20:15.216Z,60
2017-06-29T08:21:17.251Z,60
2017-06-29T08:22:19.281Z,59.9
2017-06-29T08:23:21.303Z,59.8
2017-06-29T08:24:23.342Z,59.8
2017-06-29T08:25:25.378Z,59.6
2017-06-29T08:26:27.409Z,59.6
2017-06-29T08:27:29.432Z,59.6
2017-06-29T08:28:31.800Z,59.4
2017-06-29T08:29:33.823Z,59.3
2017-06-29T08:30:35.853Z,59
2017-06-29T08:31:38.251Z,58.9
2017-06-29T08:32:40.281Z,58.8
2017-06-29T08:33:42.311Z,58.9
2017-06-29T08:34:44.344Z,58.8
2017-06-29T08:35:46.363Z,58.9
2017-06-29T08:36:48.387Z,58.8
2017-06-29T08:37:50.419Z,58.8
2017-06-29T08:38:52.449Z,58.9
2017-06-29T08:39:54.472Z,58.8
2017-06-29T08:40:56.508Z,58.7
2017-06-29T08:41:58.539Z,58.6
2017-06-29T08:43:00.575Z,58.5
2017-06-29T08:44:02.983Z,58.5
2017-06-29T08:45:05.006Z,58.4
2017-06-29T08:46:07.037Z,58.5
2017-06-29T08:47:09.059Z,58.3
2017-06-29T08:48:11.088Z,58.4
2017-06-29T08:49:13.120Z,58.4
2017-06-29T08:50:15.147Z,58.3
2017-06-29T08:51:17.177Z,58.2
2017-06-29T08:52:19.204Z,58.3
2017-06-29T08:53:21.226Z,58.3
2017-06-29T08:54:23.262Z,58.2
2017-06-29T08:55:25.279Z,58.1
2017-06-29T08:56:27.315Z,58
2017-06-29T08:57:29.678Z,57.7
2017-06-29T08:58:31.708Z,57.5
2017-06-29T08:59:33.771Z,57.4
2017-06-29T09:00:36.135Z,57.5
2017-06-29T09:01:38.163Z,57.5
2017-06-29T09:02:40.201Z,57.6
2017-06-29T09:03:42.222Z,57.6
2017-06-29T09:04:44.251Z,57.6
2017-06-29T09:05:46.285Z,57.6
2017-06-29T09:06:48.313Z,57.6
2017-06-29T09:07:50.346Z,57.7
2017-06-29T09:08:52.374Z,57.6
2017-06-29T09:09:54.402Z,57.7
2017-06-29T09:10:56.434Z,57.7
2017-06-29T09:11:58.460Z,57.7
2017-06-29T09:13:00.481Z,57.7
2017-06-29T09:14:02.516Z,57.7
2017-06-29T09:15:04.572Z,57.7
2017-06-29T09:16:06.598Z,57.6
2017-06-29T09:17:08.630Z,57.4
2017-06-29T09:18:10.664Z,57.3
2017-06-29T09:19:12.693Z,57.3
2017-06-29T09:20:14.725Z,57.3
2017-06-29T09:21:16.754Z,57.2
2017-06-29T09:22:18.790Z,57.2
2017-06-29T09:23:20.819Z,57.3
2017-06-29T09:24:22.851Z,57.2
2017-06-29T09:25:25.215Z,57.4
2017-06-29T09:26:27.254Z,57.6
2017-06-29T09:27:29.619Z,57.5
2017-06-29T09:28:31.650Z,57.6
2017-06-29T09:29:33.691Z,57.6
2017-06-29T09:30:35.716Z,57.6
2017-06-29T09:31:37.745Z,57.5
2017-06-29T09:32:39.768Z,57.5
2017-06-29T09:33:41.801Z,57.6
2017-06-29T09:34:43.828Z,57.5
2017-06-29T09:35:45.861Z,57.6
2017-06-29T09:36:47.897Z,57.6
2017-06-29T09:37:50.265Z,57.6
2017-06-29T09:38:52.631Z,57.6
2017-06-29T09:39:54.662Z,57.6
2017-06-29T09:40:56.694Z,57.6
2017-06-29T09:41:58.725Z,57.3
2017-06-29T09:43:00.751Z,57.1
2017-06-29T09:44:02.780Z,57.1
2017-06-29T09:45:04.813Z,56.9
2017-06-29T09:46:06.851Z,56.9
2017-06-29T09:47:08.881Z,56.7
2017-06-29T09:48:10.902Z,56.7
2017-06-29T09:49:12.937Z,56.5
2017-06-29T09:50:14.969Z,56.6
2017-06-29T09:51:16.997Z,56.7
2017-06-29T09:52:19.026Z,56.8
2017-06-29T09:53:21.391Z,56.7
2017-06-29T09:54:23.443Z,56.8
2017-06-29T09:55:25.475Z,56.8
2017-06-29T09:56:27.502Z,56.8
2017-06-29T09:57:29.534Z,56.8
2017-06-29T09:58:31.560Z,56.8
2017-06-29T09:59:33.929Z,56.9
2017-06-29T10:00:35.956Z,56.8
2017-06-29T10:01:37.982Z,56.8
2017-06-29T10:02:40.010Z,56.8
2017-06-29T10:03:42.039Z,56.8
2017-06-29T10:04:44.068Z,56.8
2017-06-29T10:05:46.096Z,56.8
2017-06-29T10:06:48.798Z,56.7
2017-06-29T10:07:50.828Z,56.6
2017-06-29T10:08:52.854Z,56.6
2017-06-29T10:09:54.896Z,56.7
2017-06-29T10:10:56.924Z,56.8
2017-06-29T10:11:58.951Z,56.9
2017-06-29T10:13:00.982Z,56.9
2017-06-29T10:14:03.018Z,56.8
2017-06-29T10:15:05.049Z,57.1
2017-06-29T10:16:07.079Z,57.2
2017-06-29T10:17:09.122Z,57.2
2017-06-29T10:18:11.490Z,57.2
2017-06-29T10:19:13.514Z,57.2
2017-06-29T10:20:15.556Z,57.2
2017-06-29T10:21:17.579Z,57.2
2017-06-29T10:22:19.613Z,57.3
2017-06-29T10:23:21.685Z,57.3
2017-06-29T10:24:23.719Z,57.3
2017-06-29T10:25:25.743Z,57.3
2017-06-29T10:26:27.771Z,57.3
2017-06-29T10:27:30.142Z,57.3
2017-06-29T10:28:32.174Z,57.3
2017-06-29T10:29:34.202Z,57.3
2017-06-29T10:30:36.240Z,57.3
2017-06-29T10:31:38.267Z,57.3
2017-06-29T10:32:40.295Z,57.4
2017-06-29T10:33:42.323Z,57.4
2017-06-29T10:34:44.687Z,57.2
2017-06-29T10:35:46.716Z,57.1
2017-06-29T10:36:48.753Z,57
2017-06-29T10:37:50.780Z,56.9
2017-06-29T10:38:52.811Z,56.8
2017-06-29T10:39:54.838Z,56.8
2017-06-29T10:40:56.867Z,56.7
2017-06-29T10:41:59.244Z,56.6
2017-06-29T10:43:01.285Z,56.5
2017-06-29T10:44:03.306Z,56.6
2017-06-29T10:45:05.685Z,56.8
2017-06-29T10:46:07.717Z,56.8
2017-06-29T10:47:09.753Z,56.8
2017-06-29T10:48:11.783Z,56.9
2017-06-29T10:49:13.812Z,57
2017-06-29T10:50:15.843Z,56.8
2017-06-29T10:51:17.874Z,56.7
2017-06-29T10:52:19.907Z,56.4
2017-06-29T10:53:22.282Z,56.4
2017-06-29T10:54:24.308Z,56.1
2017-06-29T10:55:26.339Z,55.9
2017-06-29T10:56:28.586Z,55.9
2017-06-29T10:57:31.817Z,55.9
2017-06-29T10:58:34.185Z,55.8
2017-06-29T10:59:36.599Z,55.8
2017-06-29T11:00:38.633Z,55.8
2017-06-29T11:01:40.662Z,55.8
2017-06-29T11:02:42.692Z,56
2017-06-29T11:03:44.732Z,55.9
2017-06-29T11:04:46.763Z,56
2017-06-29T11:05:51.115Z,56
2017-06-29T11:06:56.962Z,55.9
2017-06-29T11:08:05.604Z,55.8
2017-06-29T11:09:13.420Z,55.8
2017-06-29T11:10:23.378Z,55.7
2017-06-29T11:11:33.671Z,55.6
2017-06-29T11:12:41.337Z,55.6
2017-06-29T11:13:46.322Z,55.4
2017-06-29T11:14:48.774Z,55.5
2017-06-29T11:15:52.521Z,55.6
2017-06-29T11:16:56.484Z,55.5
2017-06-29T11:18:04.789Z,55.6
2017-06-29T11:19:13.625Z,55.7
2017-06-29T11:20:23.297Z,55.8
2017-06-29T11:21:30.851Z,55.9
2017-06-29T11:22:39.508Z,55.9
2017-06-29T11:23:47.996Z,55.9
2017-06-29T11:24:56.446Z,55.8
2017-06-29T11:26:03.000Z,55.6
2017-06-29T11:27:11.832Z,55.4
2017-06-29T11:28:20.404Z,55.2
2017-06-29T11:29:28.334Z,55.1
2017-06-29T11:30:35.194Z,55.1
2017-06-29T11:31:37.228Z,54.9
2017-06-29T11:32:39.270Z,54.9
2017-06-29T11:33:41.301Z,55.1
2017-06-29T11:34:43.331Z,55.1
2017-06-29T11:35:45.363Z,55.2
2017-06-29T11:36:47.398Z,55.1
2017-06-29T11:37:49.448Z,55.1
2017-06-29T11:38:51.504Z,55.1
2017-06-29T11:39:53.538Z,55.1
2017-06-29T11:40:55.564Z,54.9
2017-06-29T11:41:57.614Z,55
2017-06-29T11:42:59.648Z,55
2017-06-29T11:44:01.676Z,54.9
2017-06-29T11:45:04.066Z,54.9
2017-06-29T11:46:06.436Z,54.9
2017-06-29T11:47:08.473Z,54.9
2017-06-29T11:48:10.840Z,55
2017-06-29T11:49:12.865Z,54.9
2017-06-29T11:50:14.907Z,55
2017-06-29T11:51:16.939Z,54.9
2017-06-29T11:52:18.969Z,54.8
2017-06-29T11:53:21.008Z,54.8
2017-06-29T11:54:23.034Z,54.8
2017-06-29T11:55:25.063Z,54.8
2017-06-29T11:56:27.100Z,54.9
2017-06-29T11:57:29.131Z,54.9
2017-06-29T11:58:31.165Z,54.9
2017-06-29T11:59:33.234Z,54.9
2017-06-29T12:00:35.281Z,55
2017-06-29T12:01:37.543Z,55
2017-06-29T12:02:39.584Z,54.9
2017-06-29T12:03:41.627Z,54.9
2017-06-29T12:04:43.663Z,55
2017-06-29T12:05:45.699Z,54.9
2017-06-29T12:06:47.731Z,55
2017-06-29T12:07:50.105Z,55
2017-06-29T12:08:52.139Z,55.1
2017-06-29T12:09:54.175Z,55.1
2017-06-29T12:10:56.214Z,55
2017-06-29T12:11:58.242Z,55
2017-06-29T12:13:00.269Z,55
2017-06-29T12:14:02.302Z,55
2017-06-29T12:15:04.683Z,55
2017-06-29T12:16:07.056Z,55
2017-06-29T12:17:09.097Z,55.1
2017-06-29T12:18:11.131Z,55.1
2017-06-29T12:19:13.160Z,55.2
2017-06-29T12:20:15.191Z,55.2
2017-06-29T12:21:17.223Z,55.4
2017-06-29T12:22:19.589Z,55.3
2017-06-29T12:23:21.625Z,55.3
2017-06-29T12:24:23.651Z,55.3
2017-06-29T12:25:25.687Z,55.3
2017-06-29T12:26:27.712Z,55.3
2017-06-29T12:27:29.747Z,55.5
2017-06-29T12:28:31.781Z,55.6
2017-06-29T12:29:33.825Z,55.7
2017-06-29T12:30:36.193Z,55.9
2017-06-29T12:31:38.220Z,55.9
2017-06-29T12:32:40.248Z,56.1
2017-06-29T12:33:42.280Z,56
2017-06-29T12:34:44.305Z,56.2
2017-06-29T12:35:46.374Z,56.3
2017-06-29T12:36:48.400Z,56.5
2017-06-29T12:37:50.428Z,56.4
2017-06-29T12:38:52.457Z,56.4
2017-06-29T12:39:54.479Z,56.2
2017-06-29T12:40:56.514Z,56.2
2017-06-29T12:41:58.538Z,56.4
2017-06-29T12:43:00.558Z,56.4
2017-06-29T12:44:02.594Z,56.6
2017-06-29T12:45:04.948Z,56.5
2017-06-29T12:46:06.980Z,56.4
2017-06-29T12:47:09.041Z,56.4
2017-06-29T12:48:11.416Z,56.3
2017-06-29T12:49:13.444Z,56.2
2017-06-29T12:50:15.479Z,56.2
2017-06-29T12:51:17.839Z,56.2
2017-06-29T12:52:19.873Z,56.2
2017-06-29T12:53:21.907Z,56.4
2017-06-29T12:54:23.929Z,56.4
2017-06-29T12:55:25.958Z,56.7
2017-06-29T12:56:27.985Z,56.7
2017-06-29T12:57:30.679Z,56.8
2017-06-29T12:58:32.708Z,56.8
2017-06-29T12:59:34.761Z,56.9
2017-06-29T13:00:37.119Z,56.9
2017-06-29T13:01:39.145Z,57.1
2017-06-29T13:02:41.165Z,57.2
2017-06-29T13:03:43.196Z,57.3
2017-06-29T13:04:45.562Z,57.4
2017-06-29T13:05:48.438Z,57.6
2017-06-29T13:06:50.467Z,57.7
2017-06-29T13:07:52.487Z,57.7
2017-06-29T13:08:54.510Z,57.8
2017-06-29T13:09:56.535Z,58
2017-06-29T13:10:58.566Z,58
2017-06-29T13:12:00.924Z,58
2017-06-29T13:13:02.946Z,58.1
2017-06-29T13:14:05.313Z,58.2
2017-06-29T13:15:08.031Z,58.4
2017-06-29T13:16:10.058Z,58.5
2017-06-29T13:17:12.085Z,58.6
2017-06-29T13:18:14.116Z,58.7
2017-06-29T13:19:16.147Z,58.7
2017-06-29T13:20:18.194Z,58.8
2017-06-29T13:21:20.560Z,58.8
2017-06-29T13:22:22.971Z,58.9
2017-06-29T13:23:25.461Z,59
2017-06-29T13:24:27.535Z,59.1
2017-06-29T13:25:29.576Z,59.2
2017-06-29T13:26:31.940Z,59.2
2017-06-29T13:27:33.963Z,59.3
2017-06-29T13:28:36.000Z,59.3
2017-06-29T13:29:38.358Z,59.3
2017-06-29T13:30:40.393Z,59.3
2017-06-29T13:31:42.787Z,59.4
2017-06-29T13:33:42.601Z,59.4
2017-06-29T13:34:44.646Z,59.5
2017-06-29T13:35:46.688Z,59.7
2017-06-29T13:36:49.077Z,59.7
2017-06-29T13:37:51.124Z,59.9
2017-06-29T13:38:53.167Z,59.9
2017-06-29T13:39:55.562Z,60
2017-06-29T13:40:57.596Z,59.9
2017-06-29T13:41:59.652Z,59.8
2017-06-29T13:43:02.860Z,59.9
2017-06-29T13:44:05.034Z,59.9
2017-06-29T13:45:07.076Z,60
2017-06-29T13:46:09.111Z,60
2017-06-29T13:47:11.162Z,60
2017-06-29T13:48:13.557Z,60
2017-06-29T13:49:15.598Z,60
2017-06-29T13:50:17.648Z,60.2
2017-06-29T13:51:19.690Z,60.2
2017-06-29T13:52:21.749Z,60.3
2017-06-29T13:53:23.806Z,60.5
2017-06-29T13:54:25.853Z,60.6
2017-06-29T13:55:27.897Z,60.6
2017-06-29T13:56:29.967Z,60.7
2017-06-29T13:57:32.356Z,60.7
2017-06-29T13:58:34.761Z,61